Time;durP1;ratioP1;P1;durP2;ratioP2;P2;SDS_P1;SDS_P2;PMS_P1;PMS_P2;Temp;Humidity;BMP_temperature;BMP_pressure;BME280_temperature;BME280_humidity;BME280_pressure;Samples;Min_cycle;Max_cycle;Signal;HPM_P1;HPM_P2
2020/12/16 00:00:30;;;;;;;10.50;6.90;;;6.50;99.90;;;;;;3622102;39;20392;-78
2020/12/16 00:02:57;;;;;;;9.43;6.03;;;6.50;99.90;;;;;;3621538;39;20293;-78
2020/12/16 00:05:24;;;;;;;8.88;6.43;;;6.40;99.90;;;;;;3620934;39;20295;-76
2020/12/16 00:07:51;;;;;;;6.75;6.05;;;6.40;99.90;;;;;;3622730;39;20344;-76
2020/12/16 00:10:17;;;;;;;10.10;7.75;;;6.30;99.90;;;;;;3620952;39;20768;-77
2020/12/16 00:12:44;;;;;;;7.45;6.38;;;6.20;99.90;;;;;;3621714;39;20278;-77
2020/12/16 00:15:11;;;;;;;14.02;6.50;;;6.20;99.90;;;;;;3621997;39;20379;-77
2020/12/16 00:17:38;;;;;;;12.70;5.57;;;6.10;99.90;;;;;;3622432;39;20299;-77
2020/12/16 00:20:06;;;;;;;8.15;6.10;;;6.00;99.90;;;;;;3625372;31;20339;-77
2020/12/16 00:22:37;;;;;;;7.22;5.13;;;6.00;99.90;;;;;;3623065;39;20293;-77
2020/12/16 00:25:06;;;;;;;7.20;5.97;;;6.00;99.90;;;;;;3621289;39;20263;-77
2020/12/16 00:27:32;;;;;;;5.60;5.03;;;6.00;99.90;;;;;;3621954;39;20803;-77
2020/12/16 00:29:59;;;;;;;6.05;4.53;;;5.90;99.90;;;;;;3631400;39;20248;-77
2020/12/16 00:32:26;;;;;;;6.82;5.13;;;6.00;99.90;;;;;;3621141;39;20244;-77
2020/12/16 00:34:52;;;;;;;6.15;4.95;;;6.00;99.90;;;;;;3622561;39;20264;-77
2020/12/16 00:37:19;;;;;;;5.20;4.40;;;6.00;99.90;;;;;;3621606;39;20252;-77
2020/12/16 00:39:47;;;;;;;5.13;4.63;;;6.10;99.90;;;;;;3625661;39;20252;-77
2020/12/16 00:42:13;;;;;;;6.60;5.45;;;6.00;99.90;;;;;;3627369;31;20256;-77
2020/12/16 00:44:40;;;;;;;5.40;4.40;;;6.00;99.90;;;;;;3624226;39;20343;-77
2020/12/16 00:47:06;;;;;;;5.22;4.50;;;6.00;99.90;;;;;;3621352;39;20268;-76
2020/12/16 00:49:33;;;;;;;5.65;4.38;;;6.00;99.90;;;;;;3625962;39;20239;-77
2020/12/16 00:51:59;;;;;;;9.18;4.50;;;5.90;99.90;;;;;;3623933;39;20244;-77
2020/12/16 00:54:25;;;;;;;4.68;4.28;;;5.90;99.90;;;;;;3625348;39;20259;-77
2020/12/16 00:56:53;;;;;;;7.32;4.75;;;5.90;99.90;;;;;;3621951;39;20257;-77
2020/12/16 00:59:20;;;;;;;8.68;5.22;;;5.90;99.90;;;;;;3621297;39;20236;-77
2020/12/16 01:01:47;;;;;;;5.47;4.85;;;6.00;99.90;;;;;;3623370;39;20268;-76
2020/12/16 01:04:13;;;;;;;5.90;5.20;;;6.10;99.90;;;;;;3621231;39;20260;-76
2020/12/16 01:06:40;;;;;;;5.32;4.82;;;6.10;99.90;;;;;;3623759;39;20279;-78
2020/12/16 01:09:07;;;;;;;5.50;5.00;;;6.20;99.90;;;;;;3621180;39;20256;-77
2020/12/16 01:11:35;;;;;;;5.60;5.10;;;6.20;99.90;;;;;;3621851;39;20375;-77
2020/12/16 01:14:04;;;;;;;5.05;4.43;;;6.30;99.90;;;;;;3620999;39;20260;-77
2020/12/16 01:16:34;;;;;;;5.68;4.40;;;6.40;99.90;;;;;;3624870;39;20260;-77
2020/12/16 01:19:01;;;;;;;5.93;5.38;;;6.40;99.90;;;;;;3621480;39;20276;-77
2020/12/16 01:21:28;;;;;;;6.07;5.47;;;6.40;99.90;;;;;;3621962;39;20256;-76
2020/12/16 01:23:54;;;;;;;7.43;5.57;;;6.40;99.90;;;;;;3623656;39;20280;-77
2020/12/16 01:26:20;;;;;;;6.80;5.78;;;6.50;99.90;;;;;;3621242;39;20541;-77
2020/12/16 01:28:47;;;;;;;5.70;5.20;;;6.50;99.90;;;;;;3627696;39;20328;-77
2020/12/16 01:31:14;;;;;;;5.65;5.15;;;6.60;99.90;;;;;;3623427;39;20244;-76
2020/12/16 01:33:41;;;;;;;6.88;5.03;;;6.70;99.90;;;;;;3621818;39;20259;-76
2020/12/16 01:36:08;;;;;;;7.82;5.30;;;6.80;99.90;;;;;;3621258;39;20269;-76
2020/12/16 01:38:34;;;;;;;6.30;5.63;;;6.90;99.90;;;;;;3620791;39;20291;-76
2020/12/16 01:41:05;;;;;;;10.02;5.10;;;7.00;99.90;;;;;;3621075;39;20303;-76
2020/12/16 01:43:36;;;;;;;8.70;6.80;;;7.00;99.90;;;;;;3624294;39;20391;-76
2020/12/16 01:46:03;;;;;;;12.40;8.55;;;7.00;99.90;;;;;;3620746;39;20252;-76
2020/12/16 01:48:30;;;;;;;6.65;5.95;;;7.00;99.90;;;;;;3621042;39;20290;-76
2020/12/16 01:50:57;;;;;;;11.10;7.20;;;7.00;99.90;;;;;;3629236;39;20243;-77
2020/12/16 01:53:26;;;;;;;8.18;7.35;;;7.00;99.90;;;;;;3624287;39;20335;-77
2020/12/16 01:55:54;;;;;;;8.68;7.63;;;7.00;99.90;;;;;;3626479;39;20653;-77
2020/12/16 01:58:23;;;;;;;8.63;6.78;;;7.00;99.90;;;;;;3623470;39;20264;-77
2020/12/16 02:00:52;;;;;;;7.00;6.32;;;7.00;99.90;;;;;;3621356;39;20271;-77
2020/12/16 02:03:22;;;;;;;11.02;8.25;;;7.00;99.90;;;;;;3625537;39;20252;-77
2020/12/16 02:05:53;;;;;;;10.48;7.57;;;7.00;99.90;;;;;;3621435;39;20256;-77
2020/12/16 02:08:21;;;;;;;11.27;8.88;;;7.00;99.90;;;;;;3624335;39;20365;-77
2020/12/16 02:10:48;;;;;;;10.95;7.88;;;7.00;99.90;;;;;;3621242;39;20271;-77
2020/12/16 02:13:15;;;;;;;14.95;8.60;;;7.00;99.90;;;;;;3621533;39;20270;-77
2020/12/16 02:15:41;;;;;;;9.15;7.93;;;7.00;99.90;;;;;;3625104;39;20355;-77
2020/12/16 02:18:09;;;;;;;14.10;7.32;;;7.00;99.90;;;;;;3625598;39;20271;-77
2020/12/16 02:20:36;;;;;;;10.80;6.30;;;7.00;99.90;;;;;;3621331;39;20244;-77
2020/12/16 02:23:08;;;;;;;7.80;6.63;;;7.00;99.90;;;;;;3622028;39;20353;-77
2020/12/16 02:25:36;;;;;;;10.30;6.40;;;7.00;99.90;;;;;;3625998;39;20318;-77
2020/12/16 02:28:03;;;;;;;8.20;6.25;;;7.00;99.90;;;;;;3621730;39;20256;-77
2020/12/16 02:30:29;;;;;;;7.82;6.95;;;6.90;99.90;;;;;;3629625;31;20339;-77
2020/12/16 02:32:56;;;;;;;12.32;7.00;;;6.90;99.90;;;;;;3622435;39;20298;-77
2020/12/16 02:35:22;;;;;;;8.73;7.35;;;6.90;99.90;;;;;;3620887;39;20263;-77
2020/12/16 02:37:49;;;;;;;7.05;6.35;;;6.90;99.90;;;;;;3620966;39;20288;-77
2020/12/16 02:40:15;;;;;;;8.18;6.13;;;6.90;99.90;;;;;;3624809;39;20251;-77
2020/12/16 02:42:43;;;;;;;10.73;6.30;;;6.90;99.90;;;;;;3621456;39;20252;-76
2020/12/16 02:45:09;;;;;;;10.63;6.50;;;6.90;99.90;;;;;;3622513;39;20252;-76
2020/12/16 02:47:36;;;;;;;10.43;6.32;;;6.90;99.90;;;;;;3620895;39;20365;-76
2020/12/16 02:50:03;;;;;;;7.93;5.93;;;6.80;99.90;;;;;;3620117;39;20278;-76
2020/12/16 02:52:30;;;;;;;10.63;7.68;;;6.80;99.90;;;;;;3625098;39;20232;-76
2020/12/16 02:54:56;;;;;;;8.25;6.00;;;6.80;99.90;;;;;;3620326;39;20355;-76
2020/12/16 02:57:23;;;;;;;8.95;7.13;;;6.70;99.90;;;;;;3620632;39;20283;-76
2020/12/16 02:59:56;;;;;;;13.65;6.88;;;6.60;99.90;;;;;;3620185;39;20244;-76
2020/12/16 03:02:22;;;;;;;15.93;7.22;;;6.60;99.90;;;;;;3621687;39;20285;-76
2020/12/16 03:04:49;;;;;;;23.45;7.53;;;6.60;99.90;;;;;;3620418;39;20262;-76
2020/12/16 03:07:16;;;;;;;11.05;7.35;;;6.50;99.90;;;;;;3620271;39;20243;-76
2020/12/16 03:09:42;;;;;;;9.40;7.68;;;6.50;99.90;;;;;;3625411;39;20283;-77
2020/12/16 03:12:09;;;;;;;11.25;7.95;;;6.50;99.90;;;;;;3621591;39;20291;-77
2020/12/16 03:14:35;;;;;;;8.73;7.05;;;6.40;99.90;;;;;;3621989;39;20255;-77
2020/12/16 03:17:02;;;;;;;8.98;6.88;;;6.40;99.90;;;;;;3621340;39;20380;-77
2020/12/16 03:19:29;;;;;;;8.27;6.95;;;6.40;99.90;;;;;;3626149;39;20265;-77
2020/12/16 03:21:56;;;;;;;9.32;7.03;;;6.40;99.90;;;;;;3628598;39;20255;-77
2020/12/16 03:24:22;;;;;;;12.70;7.50;;;6.30;99.90;;;;;;3625263;39;20256;-77
2020/12/16 03:26:48;;;;;;;11.57;7.97;;;6.30;99.90;;;;;;3622424;39;20246;-77
2020/12/16 03:29:15;;;;;;;9.27;7.30;;;6.30;99.90;;;;;;3624467;39;20279;-77
2020/12/16 03:31:42;;;;;;;13.60;7.00;;;6.30;99.90;;;;;;3621588;39;20272;-77
2020/12/16 03:34:09;;;;;;;16.85;8.35;;;6.20;99.90;;;;;;3621797;39;20243;-77
2020/12/16 03:36:35;;;;;;;11.48;8.52;;;6.20;99.90;;;;;;3621590;39;20341;-77
2020/12/16 03:39:05;;;;;;;9.60;7.68;;;6.20;99.90;;;;;;3621763;39;20252;-77
2020/12/16 03:41:32;;;;;;;12.68;8.55;;;6.20;99.90;;;;;;3625364;39;20244;-77
2020/12/16 03:43:58;;;;;;;11.07;8.35;;;6.20;99.90;;;;;;3624707;39;20269;-77
2020/12/16 03:46:25;;;;;;;9.85;7.90;;;6.20;99.90;;;;;;3628420;39;20242;-76
2020/12/16 03:48:51;;;;;;;18.70;10.77;;;6.10;99.90;;;;;;3621946;39;20255;-76
2020/12/16 03:51:19;;;;;;;15.90;10.63;;;6.10;99.90;;;;;;3623493;39;20287;-76
2020/12/16 03:53:45;;;;;;;12.90;10.02;;;6.20;99.90;;;;;;3624523;39;20416;-76
2020/12/16 03:56:13;;;;;;;17.60;10.48;;;6.20;99.90;;;;;;3623587;39;20256;-76
2020/12/16 03:58:42;;;;;;;11.82;9.60;;;6.30;99.90;;;;;;3626727;39;20259;-75
2020/12/16 04:01:09;;;;;;;11.57;9.10;;;6.30;99.90;;;;;;3623521;39;20343;-76
2020/12/16 04:03:36;;;;;;;13.65;9.60;;;6.30;99.90;;;;;;3623627;39;20643;-76
2020/12/16 04:06:06;;;;;;;14.13;9.02;;;6.30;99.90;;;;;;3622739;39;20256;-77
2020/12/16 04:08:34;;;;;;;9.95;8.90;;;6.30;99.90;;;;;;3622250;39;20274;-76
2020/12/16 04:11:00;;;;;;;13.40;9.02;;;6.30;99.90;;;;;;3621842;39;20260;-76
2020/12/16 04:13:27;;;;;;;9.40;8.07;;;6.40;99.90;;;;;;3624465;39;20240;-76
2020/12/16 04:15:53;;;;;;;12.48;8.45;;;6.30;99.90;;;;;;3622317;39;20279;-76
2020/12/16 04:18:20;;;;;;;13.40;8.80;;;6.30;99.90;;;;;;3622362;39;20263;-77
2020/12/16 04:20:46;;;;;;;15.38;8.80;;;6.30;99.90;;;;;;3621842;39;20259;-77
2020/12/16 04:23:13;;;;;;;10.88;8.15;;;6.30;99.90;;;;;;3621742;39;20348;-77
2020/12/16 04:25:40;;;;;;;9.18;7.03;;;6.30;99.90;;;;;;3621422;39;20709;-76
2020/12/16 04:28:07;;;;;;;11.90;5.97;;;6.30;99.90;;;;;;3621638;39;20277;-76
2020/12/16 04:30:34;;;;;;;7.50;6.75;;;6.30;99.90;;;;;;3623292;39;20271;-76
2020/12/16 04:33:00;;;;;;;7.93;6.78;;;6.20;99.90;;;;;;3626689;39;20267;-76
2020/12/16 04:35:27;;;;;;;10.75;6.80;;;6.20;99.90;;;;;;3623570;39;20279;-76
2020/12/16 04:37:54;;;;;;;9.88;7.18;;;6.20;99.90;;;;;;3621815;39;20274;-77
2020/12/16 04:40:21;;;;;;;12.18;7.63;;;6.10;99.90;;;;;;3638828;32;20290;-76
2020/12/16 04:43:02;;;;;;;10.82;7.80;;;6.00;99.90;;;;;;3621452;39;20403;-76
2020/12/16 04:45:29;;;;;;;8.90;7.68;;;5.90;99.90;;;;;;3621749;39;20270;-76
2020/12/16 04:47:56;;;;;;;13.85;7.15;;;5.90;99.90;;;;;;3621627;39;20345;-76
2020/12/16 04:50:23;;;;;;;8.98;7.32;;;5.90;99.90;;;;;;3623305;39;20236;-76
2020/12/16 04:52:50;;;;;;;10.82;7.38;;;6.00;99.90;;;;;;3621878;39;20283;-76
2020/12/16 04:55:17;;;;;;;8.60;6.85;;;6.00;99.90;;;;;;3626873;39;20388;-76
2020/12/16 04:57:50;;;;;;;18.70;7.30;;;6.10;99.90;;;;;;3626160;39;20371;-76
2020/12/16 05:00:17;;;;;;;12.27;7.75;;;6.10;99.90;;;;;;3621877;39;20248;-75
2020/12/16 05:02:51;;;;;;;8.55;7.15;;;6.10;99.90;;;;;;3622855;39;20318;-75
2020/12/16 05:05:17;;;;;;;9.75;7.55;;;6.20;99.90;;;;;;3624754;39;20772;-76
2020/12/16 05:07:44;;;;;;;11.52;7.32;;;6.20;99.90;;;;;;3624046;39;20263;-77
2020/12/16 05:10:10;;;;;;;7.82;6.90;;;6.20;99.90;;;;;;3624062;39;20271;-77
2020/12/16 05:12:37;;;;;;;11.93;6.90;;;6.20;99.90;;;;;;3621313;39;20299;-77
2020/12/16 05:15:04;;;;;;;8.65;6.90;;;6.20;99.90;;;;;;3621228;39;20282;-77
2020/12/16 05:17:31;;;;;;;9.70;7.20;;;6.20;99.90;;;;;;3623144;39;20292;-77
2020/12/16 05:19:58;;;;;;;10.52;8.00;;;6.10;99.90;;;;;;3620594;39;20255;-77
2020/12/16 05:22:28;;;;;;;12.00;8.40;;;6.00;99.90;;;;;;3621639;39;20601;-77
2020/12/16 05:24:56;;;;;;;11.55;9.20;;;5.90;99.90;;;;;;3624465;39;20255;-77
2020/12/16 05:27:24;;;;;;;11.02;7.93;;;5.90;99.90;;;;;;3621155;39;20236;-76
2020/12/16 05:29:53;;;;;;;10.88;7.65;;;5.80;99.90;;;;;;3623576;39;20267;-77
2020/12/16 05:32:25;;;;;;;9.05;6.82;;;5.90;99.90;;;;;;3623576;39;20823;-76
2020/12/16 05:34:53;;;;;;;9.95;7.65;;;5.80;99.90;;;;;;3621771;39;20280;-76
2020/12/16 05:37:25;;;;;;;7.35;6.53;;;5.80;99.90;;;;;;3621553;39;20279;-77
2020/12/16 05:40:10;;;;;;;9.35;6.95;;;5.80;99.90;;;;;;3622036;39;20305;-76
2020/12/16 05:42:37;;;;;;;8.82;7.30;;;5.80;99.90;;;;;;3620906;39;20305;-77
2020/12/16 05:45:10;;;;;;;9.75;7.25;;;5.80;99.90;;;;;;3620877;39;20240;-76
2020/12/16 05:47:39;;;;;;;13.13;7.50;;;5.70;99.90;;;;;;3621761;39;20267;-77
2020/12/16 05:50:16;;;;;;;8.10;6.40;;;5.70;99.90;;;;;;3652553;32;20282;-76
2020/12/16 05:52:44;;;;;;;8.73;6.47;;;5.70;99.90;;;;;;3624127;39;20313;-77
2020/12/16 05:55:10;;;;;;;9.95;7.65;;;5.60;99.90;;;;;;3620728;39;20272;-77
2020/12/16 05:57:37;;;;;;;10.18;8.57;;;5.60;99.90;;;;;;3621711;39;20294;-77
2020/12/16 06:00:09;;;;;;;9.52;7.40;;;5.60;99.90;;;;;;3623809;39;20579;-77
2020/12/16 06:02:38;;;;;;;10.40;8.45;;;5.50;99.90;;;;;;3621871;39;20289;-77
2020/12/16 06:05:06;;;;;;;10.98;7.20;;;5.50;99.90;;;;;;3623311;39;20283;-76
2020/12/16 06:07:38;;;;;;;12.85;8.27;;;5.50;99.90;;;;;;3620569;39;20262;-77
2020/12/16 06:10:06;;;;;;;12.48;8.93;;;5.50;99.90;;;;;;3619099;39;20352;-77
2020/12/16 06:12:35;;;;;;;14.85;8.45;;;5.40;99.90;;;;;;3621019;39;20256;-77
2020/12/16 06:15:08;;;;;;;12.65;9.23;;;5.40;99.90;;;;;;3622408;39;20251;-77
2020/12/16 06:17:40;;;;;;;12.57;9.13;;;5.40;99.90;;;;;;3620195;39;20251;-76
2020/12/16 06:20:09;;;;;;;16.17;10.40;;;5.40;99.90;;;;;;3622229;39;20291;-77
2020/12/16 06:22:38;;;;;;;12.52;9.65;;;5.40;99.90;;;;;;3620665;39;20259;-77
2020/12/16 06:25:08;;;;;;;17.50;11.23;;;5.40;99.90;;;;;;3622704;39;20277;-76
2020/12/16 06:27:43;;;;;;;14.75;10.00;;;5.30;99.90;;;;;;3646734;32;20252;-77
2020/12/16 06:30:17;;;;;;;12.85;8.85;;;5.40;99.90;;;;;;3623027;39;20282;-76
2020/12/16 06:32:47;;;;;;;17.15;9.90;;;5.40;99.90;;;;;;3620591;39;20634;-76
2020/12/16 06:35:18;;;;;;;11.35;8.73;;;5.50;99.90;;;;;;3621092;39;20244;-77
2020/12/16 06:37:47;;;;;;;13.18;8.50;;;5.50;99.90;;;;;;3620770;39;20255;-77
2020/12/16 06:40:44;;;;;;;12.48;7.97;;;5.50;99.90;;;;;;3620383;39;20263;-77
2020/12/16 06:43:40;;;;;;;10.32;8.60;;;5.50;99.90;;;;;;3620075;39;20259;-78
2020/12/16 06:46:45;;;;;;;13.38;8.60;;;5.50;99.90;;;;;;3621557;39;20259;-77
2020/12/16 06:49:35;;;;;;;12.98;7.65;;;5.50;99.90;;;;;;3623291;39;20865;-76
2020/12/16 06:52:03;;;;;;;11.65;7.95;;;5.40;99.90;;;;;;3622031;39;20270;-76
2020/12/16 06:54:40;;;;;;;11.05;7.53;;;5.40;99.90;;;;;;3621441;39;20263;-77
2020/12/16 06:57:21;;;;;;;13.63;7.82;;;5.40;99.90;;;;;;3620397;39;20307;-76
2020/12/16 06:59:57;;;;;;;10.02;7.70;;;5.40;99.90;;;;;;3620366;39;20247;-77
2020/12/16 07:02:28;;;;;;;10.55;7.35;;;5.50;99.90;;;;;;3621759;39;20268;-77
2020/12/16 07:04:56;;;;;;;11.90;7.95;;;5.50;99.90;;;;;;3620374;39;20248;-77
2020/12/16 07:07:56;;;;;;;10.68;7.47;;;5.50;99.90;;;;;;3620311;39;20264;-77
2020/12/16 07:10:54;;;;;;;10.82;7.65;;;5.40;99.90;;;;;;3603824;32;20360;-77
2020/12/16 07:13:25;;;;;;;12.80;7.05;;;5.40;99.90;;;;;;3595920;40;20314;-77
2020/12/16 07:15:54;;;;;;;15.75;8.52;;;5.40;99.90;;;;;;3596802;40;20499;-77
2020/12/16 07:18:26;;;;;;;11.88;7.70;;;5.30;99.90;;;;;;3596971;40;20272;-79
2020/12/16 07:21:14;;;;;;;16.30;8.93;;;5.40;99.90;;;;;;3598177;39;20357;-77
2020/12/16 07:23:44;;;;;;;16.25;9.18;;;5.40;99.90;;;;;;3599561;39;20291;-77
2020/12/16 07:26:17;;;;;;;12.77;8.15;;;5.30;99.90;;;;;;3596482;40;20144;-77
2020/12/16 07:28:43;;;;;;;14.13;8.13;;;5.40;99.90;;;;;;3598450;40;20264;-77
2020/12/16 07:31:10;;;;;;;15.95;9.30;;;5.40;99.90;;;;;;3594900;40;20394;-77
2020/12/16 07:33:37;;;;;;;18.52;9.18;;;5.50;99.90;;;;;;3598281;40;20360;-77
2020/12/16 07:36:05;;;;;;;16.30;10.05;;;5.50;99.90;;;;;;3598406;40;20256;-77
2020/12/16 07:38:32;;;;;;;16.13;9.25;;;5.60;99.90;;;;;;3597980;40;20884;-77
2020/12/16 07:40:59;;;;;;;16.58;9.45;;;5.70;99.90;;;;;;3607247;39;20347;-77
2020/12/16 07:43:27;;;;;;;19.50;9.10;;;5.90;99.90;;;;;;3635234;32;20295;-77
2020/12/16 07:46:08;;;;;;;15.82;9.50;;;6.00;99.90;;;;;;3622947;39;20287;-77
2020/12/16 07:48:35;;;;;;;16.52;9.80;;;6.10;99.90;;;;;;3630184;32;20247;-77
2020/12/16 07:51:05;;;;;;;19.02;12.25;;;6.20;99.90;;;;;;3622141;39;20244;-77
2020/12/16 07:53:32;;;;;;;17.02;9.85;;;6.10;99.90;;;;;;3622112;39;20275;-77
2020/12/16 07:56:00;;;;;;;16.45;10.80;;;6.10;99.90;;;;;;3621740;39;20756;-77
2020/12/16 07:58:29;;;;;;;17.05;9.32;;;6.20;99.90;;;;;;3622232;39;20244;-77
2020/12/16 08:01:06;;;;;;;17.27;8.63;;;6.20;99.90;;;;;;3622127;39;20689;-78
2020/12/16 08:03:34;;;;;;;13.45;8.55;;;6.30;99.90;;;;;;3621976;39;20363;-77
2020/12/16 08:06:01;;;;;;;12.95;8.98;;;6.30;99.90;;;;;;3622129;39;20858;-77
2020/12/16 08:08:28;;;;;;;11.63;8.50;;;6.40;99.90;;;;;;3624575;39;20256;-77
2020/12/16 08:10:54;;;;;;;13.38;8.10;;;6.40;99.90;;;;;;3624845;39;20295;-77
2020/12/16 08:13:22;;;;;;;12.23;8.70;;;6.40;99.90;;;;;;3622381;39;20267;-77
2020/12/16 08:15:50;;;;;;;12.10;8.57;;;6.50;99.90;;;;;;3627307;39;20661;-77
2020/12/16 08:18:18;;;;;;;11.68;8.15;;;6.50;99.90;;;;;;3633980;39;20251;-77
2020/12/16 08:20:45;;;;;;;15.00;9.27;;;6.50;99.90;;;;;;3631101;32;20344;-77
2020/12/16 08:23:13;;;;;;;20.10;10.15;;;6.50;99.90;;;;;;3631058;39;20674;-79
2020/12/16 08:25:41;;;;;;;17.08;8.95;;;6.50;99.90;;;;;;3629146;39;20248;-77
2020/12/16 08:28:07;;;;;;;12.15;7.80;;;6.50;99.90;;;;;;3637029;31;20292;-77
2020/12/16 08:30:40;;;;;;;14.55;8.80;;;6.50;99.90;;;;;;3633988;39;20755;-76
2020/12/16 08:33:12;;;;;;;13.88;8.75;;;6.50;99.90;;;;;;3631770;39;20292;-76
2020/12/16 08:35:45;;;;;;;14.48;9.35;;;6.50;99.90;;;;;;3632546;39;20247;-77
2020/12/16 08:38:18;;;;;;;13.68;9.38;;;6.50;99.90;;;;;;3634009;39;20247;-78
2020/12/16 08:40:47;;;;;;;19.08;9.10;;;6.50;99.90;;;;;;3632339;31;20263;-77
2020/12/16 08:43:21;;;;;;;15.85;9.27;;;6.50;99.90;;;;;;3621903;39;20247;-77
2020/12/16 08:45:48;;;;;;;22.77;12.60;;;6.60;99.90;;;;;;3631891;39;20271;-77
2020/12/16 08:48:16;;;;;;;16.83;10.23;;;6.60;99.90;;;;;;3631757;39;20283;-76
2020/12/16 08:50:42;;;;;;;12.40;8.80;;;6.60;99.90;;;;;;3633918;39;20794;-77
2020/12/16 08:53:11;;;;;;;13.82;8.95;;;6.60;99.90;;;;;;3632406;39;20244;-77
2020/12/16 08:55:38;;;;;;;14.85;8.30;;;6.70;99.90;;;;;;3631949;39;20327;-77
2020/12/16 08:58:06;;;;;;;12.70;8.85;;;6.70;99.90;;;;;;3632968;39;20231;-77
2020/12/16 09:00:33;;;;;;;13.73;9.43;;;6.80;99.90;;;;;;3630111;39;21166;-77
2020/12/16 09:03:08;;;;;;;13.55;9.82;;;6.80;99.90;;;;;;3630334;39;20279;-78
2020/12/16 09:05:38;;;;;;;18.08;9.43;;;6.80;99.90;;;;;;3629230;39;20259;-78
2020/12/16 09:08:07;;;;;;;14.18;9.25;;;6.90;99.90;;;;;;3634423;39;20305;-78
2020/12/16 09:10:35;;;;;;;16.50;9.52;;;6.90;99.90;;;;;;3634685;39;20248;-79
2020/12/16 09:13:11;;;;;;;17.70;9.90;;;7.00;99.90;;;;;;3635448;39;20324;-78
2020/12/16 09:15:37;;;;;;;18.35;10.40;;;7.10;99.90;;;;;;3628073;39;20273;-78
2020/12/16 09:18:05;;;;;;;16.27;11.00;;;7.20;99.90;;;;;;3627229;39;20270;-78
2020/12/16 09:20:31;;;;;;;16.88;10.50;;;7.40;99.90;;;;;;3631417;39;20255;-79
2020/12/16 09:22:59;;;;;;;18.65;10.48;;;7.90;99.90;;;;;;3635695;39;20264;-78
2020/12/16 09:25:28;;;;;;;16.02;9.38;;;8.40;99.90;;;;;;3629322;39;20283;-78
2020/12/16 09:27:55;;;;;;;12.18;8.60;;;9.20;99.90;;;;;;3635654;39;20278;-79
2020/12/16 09:30:33;;;;;;;10.35;7.22;;;9.90;99.90;;;;;;3626022;39;20275;-79
2020/12/16 09:33:11;;;;;;;10.13;7.45;;;10.80;99.90;;;;;;3629977;39;20265;-78
2020/12/16 09:35:39;;;;;;;8.30;6.13;;;11.70;99.90;;;;;;3627301;39;20321;-79
2020/12/16 09:38:17;;;;;;;7.78;5.85;;;12.30;99.90;;;;;;3628119;39;20232;-80
2020/12/16 09:40:44;;;;;;;7.57;6.45;;;12.40;99.90;;;;;;3630424;39;20282;-80
2020/12/16 09:43:11;;;;;;;8.25;6.10;;;12.30;99.90;;;;;;3627308;39;20286;-79
2020/12/16 09:45:58;;;;;;;7.50;6.57;;;12.10;99.90;;;;;;3634419;39;20267;-79
2020/12/16 09:48:28;;;;;;;8.57;6.32;;;11.80;99.90;;;;;;3627174;39;20254;-80
2020/12/16 09:51:16;;;;;;;8.38;6.47;;;11.50;99.90;;;;;;3669691;32;20248;-79
2020/12/16 09:53:45;;;;;;;10.57;6.85;;;11.30;99.90;;;;;;3632759;39;20267;-78
2020/12/16 09:56:23;;;;;;;8.35;6.88;;;11.40;99.90;;;;;;3620412;39;20371;-77
2020/12/16 09:58:49;;;;;;;11.98;8.15;;;11.70;99.90;;;;;;3626020;39;20975;-78
2020/12/16 10:01:16;;;;;;;9.70;8.00;;;12.10;99.90;;;;;;3628013;39;20244;-77
2020/12/16 10:03:42;;;;;;;8.20;6.80;;;12.40;99.90;;;;;;3625971;39;20252;-78
2020/12/16 10:06:12;;;;;;;7.40;6.38;;;12.50;99.90;;;;;;3622337;39;20336;-78
2020/12/16 10:08:39;;;;;;;8.63;6.00;;;12.50;99.90;;;;;;3630385;32;20270;-80
2020/12/16 10:11:10;;;;;;;9.38;5.88;;;12.40;99.90;;;;;;3625764;39;20366;-81
2020/12/16 10:13:37;;;;;;;9.82;6.40;;;12.20;99.90;;;;;;3627994;39;20313;-81
2020/12/16 10:16:04;;;;;;;8.93;6.60;;;12.10;99.90;;;;;;3631200;39;20341;-80
2020/12/16 10:18:30;;;;;;;10.48;6.60;;;12.30;99.90;;;;;;3632243;39;20273;-81
2020/12/16 10:20:56;;;;;;;9.85;5.95;;;12.50;99.90;;;;;;3634698;39;20278;-82
2020/12/16 10:23:23;;;;;;;5.80;5.20;;;12.70;99.90;;;;;;3635566;39;20269;-81
2020/12/16 10:36:35;;;;;;;5.85;5.07;;;12.50;99.90;;;;;;3639131;31;20224;-80
2020/12/16 10:39:02;;;;;;;7.00;5.63;;;12.20;99.90;;;;;;3628126;39;20311;-79
2020/12/16 10:44:25;;;;;;;7.88;6.38;;;11.90;99.90;;;;;;3629483;32;20294;-80
2020/12/16 10:46:54;;;;;;;9.30;6.50;;;11.80;99.90;;;;;;3625735;39;20348;-79
2020/12/16 10:54:49;;;;;;;6.85;5.10;;;11.50;99.90;;;;;;3621913;32;20248;-80
2020/12/16 10:57:19;;;;;;;8.85;5.70;;;11.40;99.90;;;;;;3623026;39;20252;-80
2020/12/16 10:59:47;;;;;;;10.13;8.15;;;11.40;99.90;;;;;;3642270;31;20279;-80
2020/12/16 11:05:43;;;;;;;7.03;6.00;;;11.40;99.90;;;;;;3632131;39;20424;-81
2020/12/16 11:08:10;;;;;;;7.65;6.18;;;11.30;99.90;;;;;;3625827;39;20279;-80
2020/12/16 11:10:37;;;;;;;8.63;6.22;;;11.30;99.90;;;;;;3622750;39;20279;-80
2020/12/16 11:13:04;;;;;;;6.28;5.57;;;11.20;99.90;;;;;;3624732;39;20297;-80
2020/12/16 11:15:31;;;;;;;8.23;6.47;;;11.20;99.90;;;;;;3624541;39;20268;-78
2020/12/16 11:17:57;;;;;;;10.00;6.47;;;11.20;99.90;;;;;;3632928;31;20336;-76
2020/12/16 11:20:24;;;;;;;5.88;5.03;;;11.10;99.90;;;;;;3623126;39;20360;-78
2020/12/16 11:22:50;;;;;;;7.35;5.75;;;11.10;99.90;;;;;;3626307;39;20328;-78
2020/12/16 11:25:18;;;;;;;7.13;5.82;;;11.10;99.90;;;;;;3624499;39;20251;-79
2020/12/16 11:27:44;;;;;;;7.15;5.88;;;11.20;99.90;;;;;;3624700;39;20273;-80
2020/12/16 11:30:11;;;;;;;6.32;5.72;;;11.20;99.90;;;;;;3623495;39;20279;-77
2020/12/16 11:32:37;;;;;;;5.35;4.65;;;11.20;99.90;;;;;;3620537;39;20268;-79
2020/12/16 11:35:04;;;;;;;6.25;5.65;;;11.20;99.90;;;;;;3623975;39;20422;-82
2020/12/16 11:37:30;;;;;;;8.05;5.03;;;11.30;99.90;;;;;;3620683;39;20355;-79
2020/12/16 11:39:59;;;;;;;6.82;6.05;;;11.40;99.90;;;;;;3624080;39;20278;-82
2020/12/16 11:42:26;;;;;;;8.75;6.25;;;11.40;99.90;;;;;;3643488;31;20279;-78
2020/12/16 11:44:52;;;;;;;9.50;7.53;;;11.50;99.90;;;;;;3622632;39;20272;-78
2020/12/16 11:47:19;;;;;;;8.38;5.82;;;11.70;99.90;;;;;;3625512;39;20252;-78
2020/12/16 11:49:46;;;;;;;6.55;5.85;;;11.80;99.90;;;;;;3623999;39;20281;-78
2020/12/16 11:52:13;;;;;;;6.35;4.90;;;11.90;99.90;;;;;;3623266;39;20272;-78
2020/12/16 11:54:39;;;;;;;9.00;5.47;;;12.00;99.90;;;;;;3622462;39;20268;-78
2020/12/16 11:57:06;;;;;;;6.78;5.90;;;12.10;99.90;;;;;;3622740;39;20248;-78
2020/12/16 11:59:33;;;;;;;14.75;9.32;;;12.10;99.90;;;;;;3626355;39;20284;-78
2020/12/16 12:02:02;;;;;;;9.93;6.70;;;12.20;99.90;;;;;;3624503;39;20248;-78
2020/12/16 12:04:29;;;;;;;11.52;7.53;;;12.20;99.90;;;;;;3626160;39;20310;-78
2020/12/16 12:06:56;;;;;;;12.82;7.28;;;12.20;99.90;;;;;;3622594;39;20290;-78
2020/12/16 12:09:23;;;;;;;6.18;4.90;;;12.20;99.90;;;;;;3624188;39;20306;-78
2020/12/16 12:11:50;;;;;;;7.50;5.60;;;12.20;99.90;;;;;;3633046;31;20252;-78
2020/12/16 12:14:16;;;;;;;5.97;4.60;;;12.10;99.90;;;;;;3621580;39;20248;-78
2020/12/16 12:16:44;;;;;;;7.55;5.47;;;12.10;99.90;;;;;;3619078;32;20268;-78
2020/12/16 12:19:11;;;;;;;6.80;6.10;;;12.00;99.90;;;;;;3617542;39;20259;-78
2020/12/16 12:21:37;;;;;;;12.52;11.48;;;12.00;99.90;;;;;;3618102;39;20244;-78
2020/12/16 12:24:04;;;;;;;8.23;5.70;;;12.10;99.90;;;;;;3639631;32;21054;-78
2020/12/16 12:26:30;;;;;;;5.60;5.00;;;12.20;99.90;;;;;;3617263;39;20264;-78
2020/12/16 12:28:56;;;;;;;6.43;5.63;;;12.20;99.90;;;;;;3614131;39;20301;-78
2020/12/16 12:31:23;;;;;;;6.13;5.50;;;12.20;99.90;;;;;;3617073;39;20315;-78
2020/12/16 12:33:50;;;;;;;5.80;4.90;;;12.30;99.90;;;;;;3617173;39;20268;-78
2020/12/16 12:36:17;;;;;;;5.25;4.45;;;12.30;99.90;;;;;;3614991;39;20244;-78
2020/12/16 12:38:44;;;;;;;5.50;4.93;;;12.30;99.90;;;;;;3613219;39;20270;-78
2020/12/16 12:41:10;;;;;;;5.40;4.90;;;12.30;99.90;;;;;;3615765;39;20264;-78
2020/12/16 12:43:37;;;;;;;5.45;4.00;;;12.20;99.90;;;;;;3616704;39;20268;-78
2020/12/16 12:46:04;;;;;;;4.78;4.35;;;12.20;99.90;;;;;;3618949;39;20347;-78
2020/12/16 12:48:30;;;;;;;16.85;14.75;;;12.20;99.90;;;;;;3613898;39;20280;-78
2020/12/16 12:50:57;;;;;;;5.22;4.50;;;12.20;99.90;;;;;;3617474;39;20244;-78
2020/12/16 12:53:24;;;;;;;4.93;4.35;;;12.20;99.90;;;;;;3614825;39;20240;-78
2020/12/16 12:55:50;;;;;;;4.68;3.92;;;12.20;99.90;;;;;;3614501;39;20284;-78
2020/12/16 12:58:17;;;;;;;4.93;4.25;;;12.10;99.90;;;;;;3612291;39;20268;-78
2020/12/16 13:00:43;;;;;;;4.55;4.15;;;12.10;99.90;;;;;;3613648;39;20290;-77
2020/12/16 13:03:10;;;;;;;4.78;4.38;;;12.10;99.90;;;;;;3615479;39;20294;-78
2020/12/16 13:05:36;;;;;;;4.00;3.67;;;12.10;99.90;;;;;;3619834;39;20251;-80
2020/12/16 13:08:03;;;;;;;5.00;3.78;;;12.10;99.90;;;;;;3620255;39;20252;-78
2020/12/16 13:10:30;;;;;;;4.97;3.80;;;12.10;99.90;;;;;;3617235;39;20276;-78
2020/12/16 13:12:56;;;;;;;3.80;3.45;;;12.20;99.90;;;;;;3615138;39;20243;-78
2020/12/16 13:15:23;;;;;;;3.83;3.53;;;12.20;99.90;;;;;;3615629;39;20348;-78
2020/12/16 13:17:50;;;;;;;7.10;5.30;;;12.20;99.90;;;;;;3615764;39;20252;-78